sensor_id;sensor_type;location;lat;lon;timestamp;P1;durP1;ratioP1;P2;durP2;ratioP2
84379;SDS011;74571;52.514;13.468;2024-03-08T00:02:05;12.63;;;6.55;;
84379;SDS011;74571;52.514;13.468;2024-03-08T00:04:30;11.55;;;6.53;;
84379;SDS011;74571;52.514;13.468;2024-03-08T00:06:56;12.40;;;6.33;;
84379;SDS011;74571;52.514;13.468;2024-03-08T00:09:21;11.70;;;6.63;;
84379;SDS011;74571;52.514;13.468;2024-03-08T00:11:46;13.67;;;5.97;;
84379;SDS011;74571;52.514;13.468;2024-03-08T00:14:12;12.77;;;6.47;;
84379;SDS011;74571;52.514;13.468;2024-03-08T00:16:37;12.23;;;6.47;;
84379;SDS011;74571;52.514;13.468;2024-03-08T00:19:02;11.83;;;6.83;;
84379;SDS011;74571;52.514;13.468;2024-03-08T00:21:27;10.97;;;6.53;;
84379;SDS011;74571;52.514;13.468;2024-03-08T00:23:53;13.32;;;6.88;;
84379;SDS011;74571;52.514;13.468;2024-03-08T00:26:19;12.32;;;6.95;;
84379;SDS011;74571;52.514;13.468;2024-03-08T00:28:46;12.80;;;6.93;;
84379;SDS011;74571;52.514;13.468;2024-03-08T00:31:11;14.73;;;6.15;;
84379;SDS011;74571;52.514;13.468;2024-03-08T00:33:37;12.00;;;6.50;;
84379;SDS011;74571;52.514;13.468;2024-03-08T00:36:02;13.77;;;6.47;;
84379;SDS011;74571;52.514;13.468;2024-03-08T00:38:27;12.00;;;6.57;;
84379;SDS011;74571;52.514;13.468;2024-03-08T00:40:52;11.30;;;6.43;;
84379;SDS011;74571;52.514;13.468;2024-03-08T00:43:18;13.23;;;6.50;;
84379;SDS011;74571;52.514;13.468;2024-03-08T00:45:43;10.03;;;6.10;;
84379;SDS011;74571;52.514;13.468;2024-03-08T00:48:08;12.50;;;6.30;;
84379;SDS011;74571;52.514;13.468;2024-03-08T00:50:34;12.90;;;6.97;;
84379;SDS011;74571;52.514;13.468;2024-03-08T00:53:00;12.50;;;6.70;;
84379;SDS011;74571;52.514;13.468;2024-03-08T00:55:25;11.67;;;6.53;;
84379;SDS011;74571;52.514;13.468;2024-03-08T00:57:51;11.90;;;5.97;;
84379;SDS011;74571;52.514;13.468;2024-03-08T01:00:18;13.05;;;7.13;;
84379;SDS011;74571;52.514;13.468;2024-03-08T01:02:46;13.98;;;6.43;;
84379;SDS011;74571;52.514;13.468;2024-03-08T01:05:11;14.57;;;6.57;;
84379;SDS011;74571;52.514;13.468;2024-03-08T01:07:37;11.50;;;6.57;;
84379;SDS011;74571;52.514;13.468;2024-03-08T01:10:03;14.03;;;6.30;;
84379;SDS011;74571;52.514;13.468;2024-03-08T01:12:28;14.52;;;7.10;;
84379;SDS011;74571;52.514;13.468;2024-03-08T01:14:54;13.88;;;7.32;;
84379;SDS011;74571;52.514;13.468;2024-03-08T01:17:20;10.00;;;6.35;;
84379;SDS011;74571;52.514;13.468;2024-03-08T01:19:45;15.23;;;6.63;;
84379;SDS011;74571;52.514;13.468;2024-03-08T01:22:11;12.20;;;6.77;;
84379;SDS011;74571;52.514;13.468;2024-03-08T01:24:36;12.73;;;6.97;;
84379;SDS011;74571;52.514;13.468;2024-03-08T01:27:02;12.63;;;6.15;;
84379;SDS011;74571;52.514;13.468;2024-03-08T01:29:27;11.85;;;6.53;;
84379;SDS011;74571;52.514;13.468;2024-03-08T01:31:54;13.52;;;7.30;;
84379;SDS011;74571;52.514;13.468;2024-03-08T01:34:20;13.13;;;6.88;;
84379;SDS011;74571;52.514;13.468;2024-03-08T01:36:45;13.55;;;6.38;;
84379;SDS011;74571;52.514;13.468;2024-03-08T01:39:11;14.80;;;7.00;;
84379;SDS011;74571;52.514;13.468;2024-03-08T01:41:36;13.80;;;7.07;;
84379;SDS011;74571;52.514;13.468;2024-03-08T01:44:02;12.15;;;6.10;;
84379;SDS011;74571;52.514;13.468;2024-03-08T01:46:30;11.98;;;6.32;;
84379;SDS011;74571;52.514;13.468;2024-03-08T01:48:56;10.32;;;6.38;;
84379;SDS011;74571;52.514;13.468;2024-03-08T01:51:22;11.32;;;6.55;;
84379;SDS011;74571;52.514;13.468;2024-03-08T01:53:47;12.17;;;6.90;;
84379;SDS011;74571;52.514;13.468;2024-03-08T01:56:13;12.50;;;7.22;;
84379;SDS011;74571;52.514;13.468;2024-03-08T01:58:39;11.57;;;6.60;;
84379;SDS011;74571;52.514;13.468;2024-03-08T02:01:07;12.43;;;6.68;;
84379;SDS011;74571;52.514;13.468;2024-03-08T02:03:32;11.70;;;6.30;;
84379;SDS011;74571;52.514;13.468;2024-03-08T02:05:57;11.93;;;6.57;;
84379;SDS011;74571;52.514;13.468;2024-03-08T02:08:24;11.15;;;6.38;;
84379;SDS011;74571;52.514;13.468;2024-03-08T02:10:49;13.18;;;6.93;;
84379;SDS011;74571;52.514;13.468;2024-03-08T02:13:15;12.38;;;6.53;;
84379;SDS011;74571;52.514;13.468;2024-03-08T02:15:49;12.60;;;6.80;;
84379;SDS011;74571;52.514;13.468;2024-03-08T02:18:18;12.10;;;6.45;;
84379;SDS011;74571;52.514;13.468;2024-03-08T02:20:54;12.90;;;6.30;;
84379;SDS011;74571;52.514;13.468;2024-03-08T02:23:26;14.18;;;7.32;;
84379;SDS011;74571;52.514;13.468;2024-03-08T02:25:51;14.13;;;6.70;;
84379;SDS011;74571;52.514;13.468;2024-03-08T02:28:18;11.40;;;6.80;;
84379;SDS011;74571;52.514;13.468;2024-03-08T02:30:44;12.48;;;6.47;;
84379;SDS011;74571;52.514;13.468;2024-03-08T02:33:13;15.30;;;6.30;;
84379;SDS011;74571;52.514;13.468;2024-03-08T02:35:43;11.57;;;6.22;;
84379;SDS011;74571;52.514;13.468;2024-03-08T02:38:10;12.35;;;6.75;;
84379;SDS011;74571;52.514;13.468;2024-03-08T02:40:43;16.50;;;7.65;;
84379;SDS011;74571;52.514;13.468;2024-03-08T02:43:10;16.02;;;7.47;;
84379;SDS011;74571;52.514;13.468;2024-03-08T02:45:36;14.52;;;7.40;;
84379;SDS011;74571;52.514;13.468;2024-03-08T02:48:01;13.30;;;7.13;;
84379;SDS011;74571;52.514;13.468;2024-03-08T02:50:27;13.73;;;7.38;;
84379;SDS011;74571;52.514;13.468;2024-03-08T02:52:52;12.80;;;7.63;;
84379;SDS011;74571;52.514;13.468;2024-03-08T02:55:18;13.10;;;6.90;;
84379;SDS011;74571;52.514;13.468;2024-03-08T02:57:43;12.70;;;7.03;;
84379;SDS011;74571;52.514;13.468;2024-03-08T03:00:09;14.20;;;6.67;;
84379;SDS011;74571;52.514;13.468;2024-03-08T03:02:35;15.00;;;7.25;;
84379;SDS011;74571;52.514;13.468;2024-03-08T03:05:01;14.80;;;7.35;;
84379;SDS011;74571;52.514;13.468;2024-03-08T03:07:30;12.82;;;7.18;;
84379;SDS011;74571;52.514;13.468;2024-03-08T03:09:56;16.23;;;7.80;;
84379;SDS011;74571;52.514;13.468;2024-03-08T03:12:21;12.80;;;7.17;;
84379;SDS011;74571;52.514;13.468;2024-03-08T03:14:46;15.07;;;7.47;;
84379;SDS011;74571;52.514;13.468;2024-03-08T03:17:12;11.68;;;6.43;;
84379;SDS011;74571;52.514;13.468;2024-03-08T03:19:37;12.20;;;6.67;;
84379;SDS011;74571;52.514;13.468;2024-03-08T03:22:05;14.40;;;6.95;;
84379;SDS011;74571;52.514;13.468;2024-03-08T03:24:32;12.43;;;6.60;;
84379;SDS011;74571;52.514;13.468;2024-03-08T03:26:57;13.90;;;7.18;;
84379;SDS011;74571;52.514;13.468;2024-03-08T03:29:24;14.50;;;7.03;;
84379;SDS011;74571;52.514;13.468;2024-03-08T03:31:50;13.48;;;7.53;;
84379;SDS011;74571;52.514;13.468;2024-03-08T03:34:15;13.73;;;7.40;;
84379;SDS011;74571;52.514;13.468;2024-03-08T03:36:41;14.63;;;7.15;;
84379;SDS011;74571;52.514;13.468;2024-03-08T03:39:11;14.90;;;7.40;;
84379;SDS011;74571;52.514;13.468;2024-03-08T03:41:38;15.40;;;6.90;;
84379;SDS011;74571;52.514;13.468;2024-03-08T03:44:04;14.82;;;7.10;;
84379;SDS011;74571;52.514;13.468;2024-03-08T03:46:30;15.63;;;7.65;;
84379;SDS011;74571;52.514;13.468;2024-03-08T03:48:55;14.70;;;7.30;;
84379;SDS011;74571;52.514;13.468;2024-03-08T03:51:21;13.63;;;7.60;;
84379;SDS011;74571;52.514;13.468;2024-03-08T03:53:46;14.65;;;7.82;;
84379;SDS011;74571;52.514;13.468;2024-03-08T03:56:11;15.70;;;7.90;;
84379;SDS011;74571;52.514;13.468;2024-03-08T03:58:37;14.73;;;6.85;;
84379;SDS011;74571;52.514;13.468;2024-03-08T04:01:04;14.87;;;7.57;;
84379;SDS011;74571;52.514;13.468;2024-03-08T04:03:29;13.45;;;6.97;;
84379;SDS011;74571;52.514;13.468;2024-03-08T04:05:55;13.53;;;7.43;;
84379;SDS011;74571;52.514;13.468;2024-03-08T04:08:20;13.83;;;7.80;;
84379;SDS011;74571;52.514;13.468;2024-03-08T04:10:45;14.05;;;7.95;;
84379;SDS011;74571;52.514;13.468;2024-03-08T04:13:11;15.37;;;7.10;;
84379;SDS011;74571;52.514;13.468;2024-03-08T04:15:36;13.47;;;6.90;;
84379;SDS011;74571;52.514;13.468;2024-03-08T04:18:02;14.77;;;7.80;;
84379;SDS011;74571;52.514;13.468;2024-03-08T04:20:28;18.30;;;8.38;;
84379;SDS011;74571;52.514;13.468;2024-03-08T04:22:53;16.40;;;7.80;;
84379;SDS011;74571;52.514;13.468;2024-03-08T04:25:19;14.57;;;7.22;;
84379;SDS011;74571;52.514;13.468;2024-03-08T04:27:45;15.85;;;7.78;;
84379;SDS011;74571;52.514;13.468;2024-03-08T04:30:11;14.98;;;8.27;;
84379;SDS011;74571;52.514;13.468;2024-03-08T04:32:37;13.43;;;7.53;;
84379;SDS011;74571;52.514;13.468;2024-03-08T04:35:02;15.17;;;7.83;;
84379;SDS011;74571;52.514;13.468;2024-03-08T04:37:28;17.48;;;8.02;;
84379;SDS011;74571;52.514;13.468;2024-03-08T04:39:57;15.93;;;8.52;;
84379;SDS011;74571;52.514;13.468;2024-03-08T04:42:22;14.93;;;7.90;;
84379;SDS011;74571;52.514;13.468;2024-03-08T04:44:48;15.15;;;7.93;;
84379;SDS011;74571;52.514;13.468;2024-03-08T04:47:13;14.83;;;8.17;;
84379;SDS011;74571;52.514;13.468;2024-03-08T04:49:39;14.37;;;6.70;;
84379;SDS011;74571;52.514;13.468;2024-03-08T04:52:04;17.53;;;8.40;;
84379;SDS011;74571;52.514;13.468;2024-03-08T04:54:30;16.13;;;7.50;;
84379;SDS011;74571;52.514;13.468;2024-03-08T04:56:55;20.67;;;8.30;;
84379;SDS011;74571;52.514;13.468;2024-03-08T04:59:21;16.85;;;8.05;;
84379;SDS011;74571;52.514;13.468;2024-03-08T05:01:46;17.80;;;8.37;;
84379;SDS011;74571;52.514;13.468;2024-03-08T05:04:12;15.10;;;7.40;;
84379;SDS011;74571;52.514;13.468;2024-03-08T05:06:41;15.07;;;8.00;;
84379;SDS011;74571;52.514;13.468;2024-03-08T05:09:06;13.60;;;7.65;;
84379;SDS011;74571;52.514;13.468;2024-03-08T05:11:38;14.80;;;8.00;;
84379;SDS011;74571;52.514;13.468;2024-03-08T05:14:05;14.43;;;7.60;;
84379;SDS011;74571;52.514;13.468;2024-03-08T05:16:30;16.97;;;8.97;;
84379;SDS011;74571;52.514;13.468;2024-03-08T05:18:55;15.87;;;8.30;;
84379;SDS011;74571;52.514;13.468;2024-03-08T05:21:21;15.80;;;8.18;;
84379;SDS011;74571;52.514;13.468;2024-03-08T05:23:47;17.80;;;8.57;;
84379;SDS011;74571;52.514;13.468;2024-03-08T05:26:12;16.43;;;8.10;;
84379;SDS011;74571;52.514;13.468;2024-03-08T05:28:38;15.27;;;8.63;;
84379;SDS011;74571;52.514;13.468;2024-03-08T05:31:04;17.00;;;8.63;;
84379;SDS011;74571;52.514;13.468;2024-03-08T05:33:29;17.10;;;8.77;;
84379;SDS011;74571;52.514;13.468;2024-03-08T05:35:54;16.43;;;8.67;;
84379;SDS011;74571;52.514;13.468;2024-03-08T05:38:19;16.63;;;8.57;;
84379;SDS011;74571;52.514;13.468;2024-03-08T05:40:46;17.70;;;8.40;;
84379;SDS011;74571;52.514;13.468;2024-03-08T05:43:11;14.27;;;7.90;;
84379;SDS011;74571;52.514;13.468;2024-03-08T05:45:37;18.02;;;8.93;;
84379;SDS011;74571;52.514;13.468;2024-03-08T05:48:02;16.27;;;8.20;;
84379;SDS011;74571;52.514;13.468;2024-03-08T05:50:27;15.93;;;9.13;;
84379;SDS011;74571;52.514;13.468;2024-03-08T05:52:52;16.70;;;8.63;;
84379;SDS011;74571;52.514;13.468;2024-03-08T05:55:18;16.63;;;8.50;;
84379;SDS011;74571;52.514;13.468;2024-03-08T05:57:43;19.07;;;8.43;;
84379;SDS011;74571;52.514;13.468;2024-03-08T06:00:09;15.60;;;8.33;;
84379;SDS011;74571;52.514;13.468;2024-03-08T06:02:40;16.13;;;9.13;;
84379;SDS011;74571;52.514;13.468;2024-03-08T06:05:07;16.65;;;8.50;;
84379;SDS011;74571;52.514;13.468;2024-03-08T06:07:33;18.00;;;9.05;;
84379;SDS011;74571;52.514;13.468;2024-03-08T06:09:59;18.37;;;9.20;;
84379;SDS011;74571;52.514;13.468;2024-03-08T06:12:25;18.48;;;9.32;;
84379;SDS011;74571;52.514;13.468;2024-03-08T06:14:53;17.70;;;9.13;;
84379;SDS011;74571;52.514;13.468;2024-03-08T06:17:19;15.67;;;8.30;;
84379;SDS011;74571;52.514;13.468;2024-03-08T06:19:44;18.00;;;8.43;;
84379;SDS011;74571;52.514;13.468;2024-03-08T06:22:09;18.00;;;8.83;;
84379;SDS011;74571;52.514;13.468;2024-03-08T06:24:35;18.55;;;9.05;;
84379;SDS011;74571;52.514;13.468;2024-03-08T06:27:01;17.50;;;8.95;;
84379;SDS011;74571;52.514;13.468;2024-03-08T06:29:27;17.60;;;8.65;;
84379;SDS011;74571;52.514;13.468;2024-03-08T06:31:52;18.60;;;8.20;;
84379;SDS011;74571;52.514;13.468;2024-03-08T06:34:18;18.35;;;8.48;;
84379;SDS011;74571;52.514;13.468;2024-03-08T06:36:43;17.47;;;9.10;;
84379;SDS011;74571;52.514;13.468;2024-03-08T06:39:09;18.27;;;9.13;;
84379;SDS011;74571;52.514;13.468;2024-03-08T06:41:37;20.83;;;9.27;;
84379;SDS011;74571;52.514;13.468;2024-03-08T06:44:08;16.83;;;9.00;;
84379;SDS011;74571;52.514;13.468;2024-03-08T06:46:34;16.77;;;8.45;;
84379;SDS011;74571;52.514;13.468;2024-03-08T06:48:59;17.17;;;9.00;;
84379;SDS011;74571;52.514;13.468;2024-03-08T06:51:24;18.03;;;8.97;;
84379;SDS011;74571;52.514;13.468;2024-03-08T06:53:49;17.48;;;9.65;;
84379;SDS011;74571;52.514;13.468;2024-03-08T06:56:21;16.38;;;8.77;;
84379;SDS011;74571;52.514;13.468;2024-03-08T06:58:47;16.30;;;8.90;;
84379;SDS011;74571;52.514;13.468;2024-03-08T07:01:13;17.77;;;8.45;;
84379;SDS011;74571;52.514;13.468;2024-03-08T07:03:41;17.70;;;8.07;;
84379;SDS011;74571;52.514;13.468;2024-03-08T07:06:09;16.80;;;9.18;;
84379;SDS011;74571;52.514;13.468;2024-03-08T07:08:35;17.13;;;8.50;;
84379;SDS011;74571;52.514;13.468;2024-03-08T07:11:00;14.67;;;8.30;;
84379;SDS011;74571;52.514;13.468;2024-03-08T07:13:26;14.80;;;7.90;;
84379;SDS011;74571;52.514;13.468;2024-03-08T07:15:53;16.10;;;8.48;;
84379;SDS011;74571;52.514;13.468;2024-03-08T07:18:18;17.20;;;8.83;;
84379;SDS011;74571;52.514;13.468;2024-03-08T07:20:44;16.45;;;8.40;;
84379;SDS011;74571;52.514;13.468;2024-03-08T07:23:09;15.63;;;8.63;;
84379;SDS011;74571;52.514;13.468;2024-03-08T07:25:35;16.35;;;8.63;;
84379;SDS011;74571;52.514;13.468;2024-03-08T07:28:04;16.58;;;7.88;;
84379;SDS011;74571;52.514;13.468;2024-03-08T07:30:31;15.90;;;8.32;;
84379;SDS011;74571;52.514;13.468;2024-03-08T07:33:08;19.98;;;11.40;;
84379;SDS011;74571;52.514;13.468;2024-03-08T07:35:37;22.33;;;13.35;;
84379;SDS011;74571;52.514;13.468;2024-03-08T07:38:03;23.60;;;14.38;;
84379;SDS011;74571;52.514;13.468;2024-03-08T07:40:30;29.90;;;16.27;;
84379;SDS011;74571;52.514;13.468;2024-03-08T07:42:56;27.70;;;16.77;;
84379;SDS011;74571;52.514;13.468;2024-03-08T07:45:21;30.17;;;17.33;;
84379;SDS011;74571;52.514;13.468;2024-03-08T07:47:47;33.13;;;18.23;;
84379;SDS011;74571;52.514;13.468;2024-03-08T07:50:12;35.43;;;18.80;;
84379;SDS011;74571;52.514;13.468;2024-03-08T07:52:41;35.58;;;22.05;;
84379;SDS011;74571;52.514;13.468;2024-03-08T07:55:06;39.92;;;21.25;;
84379;SDS011;74571;52.514;13.468;2024-03-08T07:57:32;36.25;;;19.92;;
84379;SDS011;74571;52.514;13.468;2024-03-08T07:59:58;39.80;;;20.52;;
84379;SDS011;74571;52.514;13.468;2024-03-08T08:02:23;35.15;;;18.95;;
84379;SDS011;74571;52.514;13.468;2024-03-08T08:04:49;37.55;;;20.90;;
84379;SDS011;74571;52.514;13.468;2024-03-08T08:07:14;34.67;;;19.23;;
84379;SDS011;74571;52.514;13.468;2024-03-08T08:10:06;31.38;;;17.70;;
84379;SDS011;74571;52.514;13.468;2024-03-08T08:12:31;33.28;;;18.10;;
84379;SDS011;74571;52.514;13.468;2024-03-08T08:14:59;28.30;;;15.32;;
84379;SDS011;74571;52.514;13.468;2024-03-08T08:17:24;24.80;;;14.00;;
84379;SDS011;74571;52.514;13.468;2024-03-08T08:19:50;24.80;;;14.57;;
84379;SDS011;74571;52.514;13.468;2024-03-08T08:22:15;23.30;;;13.43;;
84379;SDS011;74571;52.514;13.468;2024-03-08T08:24:40;19.67;;;10.13;;
84379;SDS011;74571;52.514;13.468;2024-03-08T08:27:06;18.48;;;11.23;;
84379;SDS011;74571;52.514;13.468;2024-03-08T08:29:31;19.38;;;11.23;;
84379;SDS011;74571;52.514;13.468;2024-03-08T08:31:58;21.48;;;11.02;;
84379;SDS011;74571;52.514;13.468;2024-03-08T08:34:24;20.70;;;10.55;;
84379;SDS011;74571;52.514;13.468;2024-03-08T08:36:51;17.30;;;9.90;;
84379;SDS011;74571;52.514;13.468;2024-03-08T08:39:16;17.77;;;9.43;;
84379;SDS011;74571;52.514;13.468;2024-03-08T08:41:42;17.98;;;9.45;;
84379;SDS011;74571;52.514;13.468;2024-03-08T08:44:07;17.37;;;9.50;;
84379;SDS011;74571;52.514;13.468;2024-03-08T08:46:37;15.85;;;9.07;;
84379;SDS011;74571;52.514;13.468;2024-03-08T08:49:03;11.48;;;6.72;;
84379;SDS011;74571;52.514;13.468;2024-03-08T08:51:28;13.07;;;7.10;;
84379;SDS011;74571;52.514;13.468;2024-03-08T08:53:54;12.67;;;7.60;;
84379;SDS011;74571;52.514;13.468;2024-03-08T08:56:20;11.88;;;7.53;;
84379;SDS011;74571;52.514;13.468;2024-03-08T08:58:47;12.32;;;7.47;;
84379;SDS011;74571;52.514;13.468;2024-03-08T09:01:12;14.48;;;7.20;;
84379;SDS011;74571;52.514;13.468;2024-03-08T09:03:38;14.07;;;8.02;;
84379;SDS011;74571;52.514;13.468;2024-03-08T09:06:06;14.18;;;7.70;;
84379;SDS011;74571;52.514;13.468;2024-03-08T09:08:35;13.38;;;8.05;;
84379;SDS011;74571;52.514;13.468;2024-03-08T09:11:00;13.85;;;7.80;;
84379;SDS011;74571;52.514;13.468;2024-03-08T09:13:26;13.20;;;7.28;;
84379;SDS011;74571;52.514;13.468;2024-03-08T09:15:52;13.23;;;7.35;;
84379;SDS011;74571;52.514;13.468;2024-03-08T09:18:17;13.63;;;7.25;;
84379;SDS011;74571;52.514;13.468;2024-03-08T09:20:44;13.48;;;7.85;;
84379;SDS011;74571;52.514;13.468;2024-03-08T09:23:09;15.55;;;8.00;;
84379;SDS011;74571;52.514;13.468;2024-03-08T09:25:34;12.93;;;7.70;;
84379;SDS011;74571;52.514;13.468;2024-03-08T09:28:00;13.00;;;7.70;;
84379;SDS011;74571;52.514;13.468;2024-03-08T09:30:25;13.93;;;8.00;;
84379;SDS011;74571;52.514;13.468;2024-03-08T09:32:50;13.30;;;7.80;;
84379;SDS011;74571;52.514;13.468;2024-03-08T09:35:16;12.50;;;7.77;;
84379;SDS011;74571;52.514;13.468;2024-03-08T09:37:41;15.33;;;7.90;;
84379;SDS011;74571;52.514;13.468;2024-03-08T09:40:06;12.47;;;6.97;;
84379;SDS011;74571;52.514;13.468;2024-03-08T09:42:37;13.32;;;7.30;;
84379;SDS011;74571;52.514;13.468;2024-03-08T09:45:03;12.57;;;7.35;;
84379;SDS011;74571;52.514;13.468;2024-03-08T09:47:35;14.18;;;7.75;;
84379;SDS011;74571;52.514;13.468;2024-03-08T09:50:04;12.70;;;7.63;;
84379;SDS011;74571;52.514;13.468;2024-03-08T09:52:40;10.98;;;6.85;;
84379;SDS011;74571;52.514;13.468;2024-03-08T09:55:05;12.70;;;7.25;;
84379;SDS011;74571;52.514;13.468;2024-03-08T09:57:35;12.88;;;7.00;;
84379;SDS011;74571;52.514;13.468;2024-03-08T10:00:01;11.18;;;6.68;;
84379;SDS011;74571;52.514;13.468;2024-03-08T10:02:31;12.02;;;6.63;;
84379;SDS011;74571;52.514;13.468;2024-03-08T10:04:59;10.63;;;6.03;;
84379;SDS011;74571;52.514;13.468;2024-03-08T10:07:28;13.00;;;6.90;;
84379;SDS011;74571;52.514;13.468;2024-03-08T10:09:53;12.23;;;7.05;;
84379;SDS011;74571;52.514;13.468;2024-03-08T10:12:19;12.30;;;6.90;;
84379;SDS011;74571;52.514;13.468;2024-03-08T10:14:45;12.63;;;7.22;;
84379;SDS011;74571;52.514;13.468;2024-03-08T10:17:11;11.05;;;6.80;;
84379;SDS011;74571;52.514;13.468;2024-03-08T10:19:37;9.60;;;6.30;;
84379;SDS011;74571;52.514;13.468;2024-03-08T10:22:02;10.73;;;6.43;;
84379;SDS011;74571;52.514;13.468;2024-03-08T10:24:29;10.57;;;6.43;;
84379;SDS011;74571;52.514;13.468;2024-03-08T10:27:01;13.88;;;7.38;;
84379;SDS011;74571;52.514;13.468;2024-03-08T10:29:29;11.32;;;6.82;;
84379;SDS011;74571;52.514;13.468;2024-03-08T10:31:55;10.80;;;6.22;;
84379;SDS011;74571;52.514;13.468;2024-03-08T10:34:21;9.60;;;5.90;;
84379;SDS011;74571;52.514;13.468;2024-03-08T10:36:48;11.50;;;5.80;;
84379;SDS011;74571;52.514;13.468;2024-03-08T10:39:20;12.75;;;6.65;;
84379;SDS011;74571;52.514;13.468;2024-03-08T10:42:08;10.30;;;6.43;;
84379;SDS011;74571;52.514;13.468;2024-03-08T10:44:42;10.10;;;6.00;;
84379;SDS011;74571;52.514;13.468;2024-03-08T10:47:18;9.90;;;6.30;;
84379;SDS011;74571;52.514;13.468;2024-03-08T10:52:15;9.32;;;5.70;;
84379;SDS011;74571;52.514;13.468;2024-03-08T10:54:42;10.82;;;5.95;;
84379;SDS011;74571;52.514;13.468;2024-03-08T10:57:08;9.13;;;5.82;;
84379;SDS011;74571;52.514;13.468;2024-03-08T10:59:37;9.57;;;5.95;;
84379;SDS011;74571;52.514;13.468;2024-03-08T11:02:07;9.68;;;5.43;;
84379;SDS011;74571;52.514;13.468;2024-03-08T11:04:33;10.80;;;6.32;;
84379;SDS011;74571;52.514;13.468;2024-03-08T11:07:01;9.13;;;6.03;;
84379;SDS011;74571;52.514;13.468;2024-03-08T11:14:47;11.75;;;6.30;;
84379;SDS011;74571;52.514;13.468;2024-03-08T11:19:54;9.80;;;5.80;;
84379;SDS011;74571;52.514;13.468;2024-03-08T11:22:22;10.10;;;6.35;;
84379;SDS011;74571;52.514;13.468;2024-03-08T11:25:03;9.90;;;6.30;;
84379;SDS011;74571;52.514;13.468;2024-03-08T11:27:35;11.23;;;6.55;;
84379;SDS011;74571;52.514;13.468;2024-03-08T11:30:04;12.57;;;6.68;;
84379;SDS011;74571;52.514;13.468;2024-03-08T11:32:43;10.23;;;6.32;;
84379;SDS011;74571;52.514;13.468;2024-03-08T11:35:22;11.45;;;6.55;;
84379;SDS011;74571;52.514;13.468;2024-03-08T11:37:50;9.68;;;5.90;;
84379;SDS011;74571;52.514;13.468;2024-03-08T11:40:16;9.18;;;5.70;;
84379;SDS011;74571;52.514;13.468;2024-03-08T11:42:45;10.85;;;6.47;;
84379;SDS011;74571;52.514;13.468;2024-03-08T11:45:17;14.73;;;6.78;;
84379;SDS011;74571;52.514;13.468;2024-03-08T11:47:46;9.60;;;6.07;;
84379;SDS011;74571;52.514;13.468;2024-03-08T11:50:15;10.52;;;6.32;;
84379;SDS011;74571;52.514;13.468;2024-03-08T11:52:40;11.35;;;6.25;;
84379;SDS011;74571;52.514;13.468;2024-03-08T11:55:07;9.27;;;6.10;;
84379;SDS011;74571;52.514;13.468;2024-03-08T11:57:33;11.00;;;6.45;;
84379;SDS011;74571;52.514;13.468;2024-03-08T11:59:59;9.10;;;5.68;;
84379;SDS011;74571;52.514;13.468;2024-03-08T12:02:32;10.02;;;6.13;;
84379;SDS011;74571;52.514;13.468;2024-03-08T12:05:00;9.57;;;6.43;;
84379;SDS011;74571;52.514;13.468;2024-03-08T12:07:28;9.27;;;6.13;;
84379;SDS011;74571;52.514;13.468;2024-03-08T12:12:46;14.35;;;6.90;;
84379;SDS011;74571;52.514;13.468;2024-03-08T12:15:13;11.52;;;6.53;;
84379;SDS011;74571;52.514;13.468;2024-03-08T12:17:40;10.52;;;6.18;;
84379;SDS011;74571;52.514;13.468;2024-03-08T12:20:13;8.77;;;5.75;;
84379;SDS011;74571;52.514;13.468;2024-03-08T12:22:41;9.70;;;5.72;;
84379;SDS011;74571;52.514;13.468;2024-03-08T12:25:07;11.93;;;6.80;;
84379;SDS011;74571;52.514;13.468;2024-03-08T12:27:35;10.75;;;6.95;;
84379;SDS011;74571;52.514;13.468;2024-03-08T12:30:24;10.13;;;6.40;;
84379;SDS011;74571;52.514;13.468;2024-03-08T12:32:58;10.85;;;6.55;;
84379;SDS011;74571;52.514;13.468;2024-03-08T12:35:28;12.40;;;7.20;;
84379;SDS011;74571;52.514;13.468;2024-03-08T12:37:54;9.00;;;6.05;;
84379;SDS011;74571;52.514;13.468;2024-03-08T12:40:28;8.70;;;5.72;;
84379;SDS011;74571;52.514;13.468;2024-03-08T12:42:58;9.13;;;6.22;;
84379;SDS011;74571;52.514;13.468;2024-03-08T12:45:24;8.88;;;6.35;;
84379;SDS011;74571;52.514;13.468;2024-03-08T12:47:53;9.77;;;6.32;;
84379;SDS011;74571;52.514;13.468;2024-03-08T12:50:25;10.60;;;6.55;;
84379;SDS011;74571;52.514;13.468;2024-03-08T12:52:51;10.55;;;6.18;;
84379;SDS011;74571;52.514;13.468;2024-03-08T12:55:20;11.35;;;6.85;;
84379;SDS011;74571;52.514;13.468;2024-03-08T12:57:46;8.40;;;6.07;;
84379;SDS011;74571;52.514;13.468;2024-03-08T13:00:14;12.38;;;6.18;;
84379;SDS011;74571;52.514;13.468;2024-03-08T13:02:49;8.63;;;6.13;;
84379;SDS011;74571;52.514;13.468;2024-03-08T13:05:20;8.82;;;5.65;;
84379;SDS011;74571;52.514;13.468;2024-03-08T13:07:45;10.57;;;6.63;;
84379;SDS011;74571;52.514;13.468;2024-03-08T13:10:12;9.15;;;6.13;;
84379;SDS011;74571;52.514;13.468;2024-03-08T13:12:48;8.65;;;5.47;;
84379;SDS011;74571;52.514;13.468;2024-03-08T13:15:16;8.75;;;5.53;;
84379;SDS011;74571;52.514;13.468;2024-03-08T13:17:48;8.63;;;5.50;;
84379;SDS011;74571;52.514;13.468;2024-03-08T13:20:16;10.45;;;6.00;;
84379;SDS011;74571;52.514;13.468;2024-03-08T13:22:44;10.85;;;5.97;;
84379;SDS011;74571;52.514;13.468;2024-03-08T13:25:13;8.30;;;5.78;;
84379;SDS011;74571;52.514;13.468;2024-03-08T13:27:41;10.57;;;6.00;;
84379;SDS011;74571;52.514;13.468;2024-03-08T13:30:10;8.43;;;5.80;;
84379;SDS011;74571;52.514;13.468;2024-03-08T13:32:41;9.98;;;6.70;;
84379;SDS011;74571;52.514;13.468;2024-03-08T13:35:12;9.20;;;5.57;;
84379;SDS011;74571;52.514;13.468;2024-03-08T13:37:38;8.77;;;5.97;;
84379;SDS011;74571;52.514;13.468;2024-03-08T13:40:10;9.02;;;5.57;;
84379;SDS011;74571;52.514;13.468;2024-03-08T13:42:36;9.90;;;5.68;;
84379;SDS011;74571;52.514;13.468;2024-03-08T13:45:03;9.02;;;5.82;;
84379;SDS011;74571;52.514;13.468;2024-03-08T13:47:34;8.95;;;5.93;;
84379;SDS011;74571;52.514;13.468;2024-03-08T13:50:04;9.13;;;5.55;;
84379;SDS011;74571;52.514;13.468;2024-03-08T13:52:35;9.13;;;5.43;;
84379;SDS011;74571;52.514;13.468;2024-03-08T13:55:00;8.63;;;5.72;;
84379;SDS011;74571;52.514;13.468;2024-03-08T13:57:26;8.15;;;5.93;;
84379;SDS011;74571;52.514;13.468;2024-03-08T14:02:52;8.98;;;5.65;;
84379;SDS011;74571;52.514;13.468;2024-03-08T14:05:18;6.63;;;4.95;;
84379;SDS011;74571;52.514;13.468;2024-03-08T14:07:44;7.57;;;5.38;;
84379;SDS011;74571;52.514;13.468;2024-03-08T14:10:11;8.48;;;5.43;;
84379;SDS011;74571;52.514;13.468;2024-03-08T14:12:37;8.50;;;5.63;;
84379;SDS011;74571;52.514;13.468;2024-03-08T14:15:03;8.68;;;5.47;;
84379;SDS011;74571;52.514;13.468;2024-03-08T14:17:31;9.25;;;5.72;;
84379;SDS011;74571;52.514;13.468;2024-03-08T14:19:56;9.82;;;6.18;;
84379;SDS011;74571;52.514;13.468;2024-03-08T14:22:22;7.97;;;5.53;;
84379;SDS011;74571;52.514;13.468;2024-03-08T14:24:48;8.73;;;6.20;;
84379;SDS011;74571;52.514;13.468;2024-03-08T14:27:14;8.38;;;5.03;;
84379;SDS011;74571;52.514;13.468;2024-03-08T14:29:40;7.55;;;5.57;;
84379;SDS011;74571;52.514;13.468;2024-03-08T14:32:05;7.90;;;5.93;;
84379;SDS011;74571;52.514;13.468;2024-03-08T14:34:33;8.65;;;6.00;;
84379;SDS011;74571;52.514;13.468;2024-03-08T14:36:59;10.23;;;6.15;;
84379;SDS011;74571;52.514;13.468;2024-03-08T14:39:25;8.82;;;5.50;;